INFORMACIÓN METAR y TAF
METAR FOR LEAS
ADDS - METARS form results

(1558 UTC 24 May 2022)
Data provider http://aviationweather.gov/metar/data/
 
METAR text: LEAS 241530Z 28014KT 9999 FEW030 16/12 Q1017 NOSIG
Conditions at: LEAS (ASTURIAS/AVILES , ES) observed 1530 UTC 24 May 2022
Temperature: 16.0°C (61°F)
Dewpoint: 12.0°C (54°F) [RH = 77%]
Pressure (altimeter): 30.03 inches Hg (1017.0 mb)
Winds: from the W (280 degrees) at 16 MPH (14 knots; 7.2 m/s)
Visibility: 6 or more miles (10+ km)
Ceiling: at least 12,000 feet AGL
Clouds: few clouds at 3000 feet AGL
Weather: no significant weather observed at this time

METAR text: LEAS 241500Z 29014KT 260V320 9999 FEW030 16/11 Q1017 NOSIG
Conditions at: LEAS (ASTURIAS/AVILES , ES) observed 1500 UTC 24 May 2022
Temperature: 16.0°C (61°F)
Dewpoint: 11.0°C (52°F) [RH = 72%]
Pressure (altimeter): 30.03 inches Hg (1017.0 mb)
Winds: from the WNW (290 degrees) at 16 MPH (14 knots; 7.2 m/s)
Visibility: 6 or more miles (10+ km)
Ceiling: at least 12,000 feet AGL
Clouds: few clouds at 3000 feet AGL
Weather: no significant weather observed at this time

Forecast for: LEAS (ASTURIAS/AVILES , ES)
Text: TAF LEAS 241400Z 2415/2515 28010KT 9999 FEW020 BKN050 TX17/2512Z TN11/2505Z
Forecast period: 1500 UTC 24 May 2022 to 1500 UTC 25 May 2022
Forecast type: FROM: standard forecast or significant change
Winds: from the W (280 degrees) at 12 MPH (10 knots; 5.1 m/s)
Visibility: 6 or more miles (10+ km)
Ceiling: 5000 feet AGL
Clouds: few clouds at 2000 feet AGL
broken clouds at 5000 feet AGL
Weather: no significant weather forecast for this period
Text: PROB40
Forecast period: 1500 UTC 24 May 2022 to 0400 UTC 25 May 2022
Forecast type: TEMPORARY: The following changes expected for less than half the time period
Visibility: 1.86 miles (2.99 km)
Ceiling: at least 12,000 feet AGL
Clouds: few clouds at 3000 feet AGL
Weather: SHRA  (rain showers)
Text: TEMPO 2415/2504 3000 SHRA FEW030TCU
Forecast period: 2000 UTC 24 May 2022 to 0700 UTC 25 May 2022
Forecast type: TEMPORARY: The following changes expected for less than half the time period
Winds: variable direction winds at 3 MPH (3 knots; 1.5 m/s)
Visibility: missing
Ceiling: unknown
Clouds: missing
Weather: no significant weather forecast for this period

 MAPA DE AEROPUERTO

 INFORMACIÓN DE PISTA
Pista 11 Longitud 7218 ft Ancho 148 ft
Elevación 399 ft Umbral desplazado 0 ft Rumbo de pista 109
Pista 29 Longitud 7218 ft Ancho 148 ft
Elevación 399 ft Umbral desplazado 0 ft Rumbo de pista 289

 FRECUANCIAS DEL AEROPUERTO
Tipo APP Nombre APP Frecuencia 118.15 MHZ
Tipo GND Nombre GND Frecuencia 121.7 MHZ
Tipo TWR Nombre TWR Frecuencia 118.15 MHZ

 RADIO AYUDAS DEL AEROPUERTO
Tipo NDB Nombre Asturias Frecuencia 325 KHZ
Tipo NDB Nombre Asturias Frecuencia 387 KHZ
Tipo VOR-DME Nombre Asturias Frecuencia 112400 KHZ




Normativa | Spanair Virtual © 2022 |